sensor_id;sensor_type;location;lat;lon;timestamp;pressure;altitude;pressure_sealevel;temperature;humidity
50550;BME280;36505;52.512;13.460;2022-09-09T00:00:28;100530.09;;;15.03;98.65
50550;BME280;36505;52.512;13.460;2022-09-09T00:11:25;100528.75;;;14.96;98.81
50550;BME280;36505;52.512;13.460;2022-09-09T00:13:52;100527.91;;;14.95;98.65
50550;BME280;36505;52.512;13.460;2022-09-09T00:16:27;100533.72;;;14.94;98.63
50550;BME280;36505;52.512;13.460;2022-09-09T00:21:34;100528.50;;;14.92;98.72
50550;BME280;36505;52.512;13.460;2022-09-09T00:24:08;100527.09;;;14.90;98.89
50550;BME280;36505;52.512;13.460;2022-09-09T00:29:28;100515.50;;;14.88;98.89
50550;BME280;36505;52.512;13.460;2022-09-09T00:31:57;100518.56;;;14.86;98.79
50550;BME280;36505;52.512;13.460;2022-09-09T00:34:26;100521.34;;;14.86;98.72
50550;BME280;36505;52.512;13.460;2022-09-09T00:36:53;100508.66;;;14.85;98.54
50550;BME280;36505;52.512;13.460;2022-09-09T00:39:32;100507.00;;;14.84;98.49
50550;BME280;36505;52.512;13.460;2022-09-09T00:44:35;100492.66;;;14.67;99.00
50550;BME280;36505;52.512;13.460;2022-09-09T00:47:16;100522.16;;;14.77;99.25
50550;BME280;36505;52.512;13.460;2022-09-09T00:55:17;100519.97;;;14.69;99.41
50550;BME280;36505;52.512;13.460;2022-09-09T00:57:46;100518.59;;;14.66;99.38
50550;BME280;36505;52.512;13.460;2022-09-09T01:05:59;100517.22;;;14.63;99.35
50550;BME280;36505;52.512;13.460;2022-09-09T01:17:01;100521.34;;;14.56;99.36
50550;BME280;36505;52.512;13.460;2022-09-09T01:27:53;100520.78;;;14.54;98.80
50550;BME280;36505;52.512;13.460;2022-09-09T01:30:20;100533.72;;;14.53;98.67
50550;BME280;36505;52.512;13.460;2022-09-09T01:32:54;100524.91;;;14.41;98.60
50550;BME280;36505;52.512;13.460;2022-09-09T01:35:31;100531.25;;;14.42;98.71
50550;BME280;36505;52.512;13.460;2022-09-09T01:37:58;100522.16;;;14.41;99.07
50550;BME280;36505;52.512;13.460;2022-09-09T01:40:24;100527.94;;;14.40;98.97
50550;BME280;36505;52.512;13.460;2022-09-09T01:42:50;100533.75;;;14.38;99.06
50550;BME280;36505;52.512;13.460;2022-09-09T01:45:16;100526.56;;;14.37;98.92
50550;BME280;36505;52.512;13.460;2022-09-09T01:47:41;100516.91;;;14.30;98.94
50550;BME280;36505;52.512;13.460;2022-09-09T01:50:10;100522.69;;;14.33;98.95
50550;BME280;36505;52.512;13.460;2022-09-09T01:52:38;100517.19;;;14.28;98.98
50550;BME280;36505;52.512;13.460;2022-09-09T01:55:04;100522.16;;;14.26;98.98
50550;BME280;36505;52.512;13.460;2022-09-09T01:57:33;100524.34;;;14.24;99.13
50550;BME280;36505;52.512;13.460;2022-09-09T02:00:10;100513.59;;;14.22;99.14
50550;BME280;36505;52.512;13.460;2022-09-09T02:10:42;100532.56;;;14.14;99.41
50550;BME280;36505;52.512;13.460;2022-09-09T02:13:12;100532.88;;;14.12;99.57
50550;BME280;36505;52.512;13.460;2022-09-09T02:15:58;100529.56;;;14.10;99.57
50550;BME280;36505;52.512;13.460;2022-09-09T02:18:48;100541.41;;;14.11;99.45
50550;BME280;36505;52.512;13.460;2022-09-09T02:21:16;100535.31;;;14.09;99.37
50550;BME280;36505;52.512;13.460;2022-09-09T02:23:43;100538.91;;;14.09;99.27
50550;BME280;36505;52.512;13.460;2022-09-09T02:26:11;100544.41;;;14.09;99.24
50550;BME280;36505;52.512;13.460;2022-09-09T02:28:39;100532.84;;;14.07;99.18
50550;BME280;36505;52.512;13.460;2022-09-09T02:31:06;100535.06;;;14.05;99.32
50550;BME280;36505;52.512;13.460;2022-09-09T02:33:39;100534.50;;;14.03;99.32
50550;BME280;36505;52.512;13.460;2022-09-09T02:36:08;100532.00;;;14.07;98.92
50550;BME280;36505;52.512;13.460;2022-09-09T02:38:38;100531.75;;;14.08;98.96
50550;BME280;36505;52.512;13.460;2022-09-09T02:41:06;100535.59;;;14.07;98.70
50550;BME280;36505;52.512;13.460;2022-09-09T02:43:35;100532.31;;;14.05;98.57
50550;BME280;36505;52.512;13.460;2022-09-09T02:46:30;100524.00;;;14.00;98.40
50550;BME280;36505;52.512;13.460;2022-09-09T02:49:19;100527.06;;;14.04;98.45
50550;BME280;36505;52.512;13.460;2022-09-09T02:54:34;100524.00;;;14.00;98.32
50550;BME280;36505;52.512;13.460;2022-09-09T02:59:37;100529.25;;;13.97;98.33
50550;BME280;36505;52.512;13.460;2022-09-09T03:02:03;100524.56;;;13.97;98.41
50550;BME280;36505;52.512;13.460;2022-09-09T03:04:29;100529.25;;;13.97;98.47
50550;BME280;36505;52.512;13.460;2022-09-09T03:06:57;100519.88;;;13.93;98.28
50550;BME280;36505;52.512;13.460;2022-09-09T03:09:22;100534.47;;;13.93;98.36
50550;BME280;36505;52.512;13.460;2022-09-09T03:11:48;100535.84;;;13.91;98.26
50550;BME280;36505;52.512;13.460;2022-09-09T03:14:15;100554.03;;;13.92;98.25
50550;BME280;36505;52.512;13.460;2022-09-09T03:16:40;100551.53;;;13.85;98.18
50550;BME280;36505;52.512;13.460;2022-09-09T03:19:07;100552.06;;;13.82;98.31
50550;BME280;36505;52.512;13.460;2022-09-09T03:21:32;100558.13;;;13.84;98.48
50550;BME280;36505;52.512;13.460;2022-09-09T03:23:58;100552.06;;;13.82;98.95
50550;BME280;36505;52.512;13.460;2022-09-09T03:26:23;100554.25;;;13.80;98.42
50550;BME280;36505;52.512;13.460;2022-09-09T03:28:48;100559.22;;;13.78;98.31
50550;BME280;36505;52.512;13.460;2022-09-09T03:31:15;100563.31;;;13.75;98.49
50550;BME280;36505;52.512;13.460;2022-09-09T03:33:40;100558.06;;;13.74;98.38
50550;BME280;36505;52.512;13.460;2022-09-09T03:36:08;100567.16;;;13.74;98.28
50550;BME280;36505;52.512;13.460;2022-09-09T03:38:34;100556.16;;;13.74;98.12
50550;BME280;36505;52.512;13.460;2022-09-09T03:41:00;100557.81;;;13.75;97.94
50550;BME280;36505;52.512;13.460;2022-09-09T03:43:27;100547.63;;;13.76;97.83
50550;BME280;36505;52.512;13.460;2022-09-09T03:45:53;100553.13;;;13.76;97.58
50550;BME280;36505;52.512;13.460;2022-09-09T03:48:22;100563.31;;;13.75;97.31
50550;BME280;36505;52.512;13.460;2022-09-09T03:50:50;100564.16;;;13.76;97.34
50550;BME280;36505;52.512;13.460;2022-09-09T03:53:17;100558.63;;;13.76;97.13
50550;BME280;36505;52.512;13.460;2022-09-09T03:55:46;100564.16;;;13.76;96.99
50550;BME280;36505;52.512;13.460;2022-09-09T03:58:13;100568.25;;;13.73;96.86
50550;BME280;36505;52.512;13.460;2022-09-09T04:00:39;100560.81;;;13.74;96.77
50550;BME280;36505;52.512;13.460;2022-09-09T04:03:11;100561.66;;;13.74;96.66
50550;BME280;36505;52.512;13.460;2022-09-09T04:05:39;100556.16;;;13.74;96.54
50550;BME280;36505;52.512;13.460;2022-09-09T04:08:06;100555.59;;;13.72;96.55
50550;BME280;36505;52.512;13.460;2022-09-09T04:10:32;100548.72;;;13.70;96.53
50550;BME280;36505;52.512;13.460;2022-09-09T04:12:57;100552.81;;;13.67;96.60
50550;BME280;36505;52.512;13.460;2022-09-09T04:15:22;100556.41;;;13.68;96.50
50550;BME280;36505;52.512;13.460;2022-09-09T04:17:48;100550.06;;;13.67;96.44
50550;BME280;36505;52.512;13.460;2022-09-09T04:20:13;100548.41;;;13.61;96.53
50550;BME280;36505;52.512;13.460;2022-09-09T04:22:38;100560.50;;;13.65;96.40
50550;BME280;36505;52.512;13.460;2022-09-09T04:25:05;100557.75;;;13.65;96.49
50550;BME280;36505;52.512;13.460;2022-09-09T04:27:31;100554.47;;;13.63;96.39
50550;BME280;36505;52.512;13.460;2022-09-09T04:29:56;100561.91;;;13.63;96.42
50550;BME280;36505;52.512;13.460;2022-09-09T04:32:22;100566.00;;;13.60;96.55
50550;BME280;36505;52.512;13.460;2022-09-09T04:34:47;100572.88;;;13.58;96.61
50550;BME280;36505;52.512;13.460;2022-09-09T04:37:13;100570.94;;;13.58;96.67
50550;BME280;36505;52.512;13.460;2022-09-09T04:39:39;100568.47;;;13.57;96.47
50550;BME280;36505;52.512;13.460;2022-09-09T04:42:04;100579.75;;;13.60;96.43
50550;BME280;36505;52.512;13.460;2022-09-09T04:44:29;100571.50;;;13.60;96.31
50550;BME280;36505;52.512;13.460;2022-09-09T04:46:55;100575.34;;;13.59;96.39
50550;BME280;36505;52.512;13.460;2022-09-09T04:49:21;100575.34;;;13.59;96.41
50550;BME280;36505;52.512;13.460;2022-09-09T04:51:48;100578.09;;;13.59;96.31
50550;BME280;36505;52.512;13.460;2022-09-09T04:54:14;100573.16;;;13.61;96.54
50550;BME280;36505;52.512;13.460;2022-09-09T04:56:39;100569.56;;;13.56;96.39
50550;BME280;36505;52.512;13.460;2022-09-09T04:59:06;100596.28;;;13.65;96.44
50550;BME280;36505;52.512;13.460;2022-09-09T05:01:31;100594.09;;;13.67;96.37
50550;BME280;36505;52.512;13.460;2022-09-09T05:03:57;100593.84;;;13.74;96.14
50550;BME280;36505;52.512;13.460;2022-09-09T05:06:23;100606.78;;;13.78;95.97
50550;BME280;36505;52.512;13.460;2022-09-09T05:08:49;100600.19;;;13.79;95.33
50550;BME280;36505;52.512;13.460;2022-09-09T05:11:25;100604.91;;;13.84;95.28
50550;BME280;36505;52.512;13.460;2022-09-09T05:13:52;100595.56;;;13.85;94.86
50550;BME280;36505;52.512;13.460;2022-09-09T05:16:18;100596.66;;;13.89;95.04
50550;BME280;36505;52.512;13.460;2022-09-09T05:18:45;100598.06;;;13.97;94.65
50550;BME280;36505;52.512;13.460;2022-09-09T05:21:15;100593.16;;;14.04;94.32
50550;BME280;36505;52.512;13.460;2022-09-09T05:23:41;100595.91;;;14.09;94.21
50550;BME280;36505;52.512;13.460;2022-09-09T05:26:08;100595.38;;;14.17;93.65
50550;BME280;36505;52.512;13.460;2022-09-09T05:28:34;100599.22;;;14.21;93.04
50550;BME280;36505;52.512;13.460;2022-09-09T05:31:05;100603.66;;;14.27;92.81
50550;BME280;36505;52.512;13.460;2022-09-09T05:33:33;100591.28;;;14.30;92.59
50550;BME280;36505;52.512;13.460;2022-09-09T05:36:02;100594.34;;;14.38;92.40
50550;BME280;36505;52.512;13.460;2022-09-09T05:38:29;100595.44;;;14.42;92.05
50550;BME280;36505;52.512;13.460;2022-09-09T05:40:55;100577.00;;;14.48;91.78
50550;BME280;36505;52.512;13.460;2022-09-09T05:43:22;100583.09;;;14.60;91.26
50550;BME280;36505;52.512;13.460;2022-09-09T05:45:48;100585.84;;;14.65;90.38
50550;BME280;36505;52.512;13.460;2022-09-09T05:48:23;100580.03;;;14.82;89.61
50550;BME280;36505;52.512;13.460;2022-09-09T05:50:53;100583.91;;;14.91;89.91
50550;BME280;36505;52.512;13.460;2022-09-09T05:53:19;100583.34;;;14.99;89.83
50550;BME280;36505;52.512;13.460;2022-09-09T05:55:45;100597.38;;;15.13;88.60
50550;BME280;36505;52.512;13.460;2022-09-09T05:58:11;100596.84;;;15.21;88.05
50550;BME280;36505;52.512;13.460;2022-09-09T06:00:36;100607.28;;;15.29;87.79
50550;BME280;36505;52.512;13.460;2022-09-09T06:03:03;100586.03;;;15.29;87.42
50550;BME280;36505;52.512;13.460;2022-09-09T06:05:28;100584.69;;;15.27;86.41
50550;BME280;36505;52.512;13.460;2022-09-09T06:07:54;100595.13;;;15.40;86.32
50550;BME280;36505;52.512;13.460;2022-09-09T06:10:21;100592.09;;;15.41;86.26
50550;BME280;36505;52.512;13.460;2022-09-09T06:12:46;100609.75;;;15.56;85.47
50550;BME280;36505;52.512;13.460;2022-09-09T06:15:12;100618.47;;;15.88;84.82
50550;BME280;36505;52.512;13.460;2022-09-09T06:17:37;100615.53;;;16.24;82.48
50550;BME280;36505;52.512;13.460;2022-09-09T06:20:04;100601.88;;;16.42;80.78
50550;BME280;36505;52.512;13.460;2022-09-09T06:22:30;100600.31;;;16.99;79.22
50550;BME280;36505;52.512;13.460;2022-09-09T06:24:56;100610.50;;;18.46;73.04
50550;BME280;36505;52.512;13.460;2022-09-09T06:27:21;100605.47;;;20.05;67.53
50550;BME280;36505;52.512;13.460;2022-09-09T06:29:47;100612.63;;;21.14;62.70
50550;BME280;36505;52.512;13.460;2022-09-09T06:32:13;100608.75;;;21.94;59.04
50550;BME280;36505;52.512;13.460;2022-09-09T06:34:38;100606.28;;;22.58;57.17
50550;BME280;36505;52.512;13.460;2022-09-09T06:37:03;100607.56;;;23.12;54.60
50550;BME280;36505;52.512;13.460;2022-09-09T06:39:29;100607.25;;;23.69;52.91
50550;BME280;36505;52.512;13.460;2022-09-09T06:41:55;100628.06;;;24.18;50.85
50550;BME280;36505;52.512;13.460;2022-09-09T06:44:20;100623.09;;;23.48;53.06
50550;BME280;36505;52.512;13.460;2022-09-09T06:46:49;100630.38;;;22.45;55.88
50550;BME280;36505;52.512;13.460;2022-09-09T06:49:15;100610.34;;;21.78;57.57
50550;BME280;36505;52.512;13.460;2022-09-09T06:51:40;100617.28;;;22.89;55.03
50550;BME280;36505;52.512;13.460;2022-09-09T06:54:08;100612.50;;;22.64;55.35
50550;BME280;36505;52.512;13.460;2022-09-09T06:56:36;100609.50;;;22.17;56.50
50550;BME280;36505;52.512;13.460;2022-09-09T06:59:04;100622.19;;;23.18;54.99
50550;BME280;36505;52.512;13.460;2022-09-09T07:01:35;100620.06;;;24.58;51.24
50550;BME280;36505;52.512;13.460;2022-09-09T07:04:02;100623.78;;;25.58;48.31
50550;BME280;36505;52.512;13.460;2022-09-09T07:06:34;100618.78;;;26.00;47.82
50550;BME280;36505;52.512;13.460;2022-09-09T07:09:02;100630.41;;;26.62;45.40
50550;BME280;36505;52.512;13.460;2022-09-09T07:11:43;100620.94;;;26.67;44.12
50550;BME280;36505;52.512;13.460;2022-09-09T07:14:09;100607.97;;;27.18;43.89
50550;BME280;36505;52.512;13.460;2022-09-09T07:16:35;100609.88;;;27.73;44.09
50550;BME280;36505;52.512;13.460;2022-09-09T07:19:03;100629.88;;;28.50;41.12
50550;BME280;36505;52.512;13.460;2022-09-09T07:21:30;100624.72;;;29.10;39.61
50550;BME280;36505;52.512;13.460;2022-09-09T07:23:56;100619.69;;;29.38;38.22
50550;BME280;36505;52.512;13.460;2022-09-09T07:26:27;100629.78;;;29.39;38.71
50550;BME280;36505;52.512;13.460;2022-09-09T07:28:53;100630.50;;;29.36;38.72
50550;BME280;36505;52.512;13.460;2022-09-09T07:31:30;100615.94;;;29.34;38.19
50550;BME280;36505;52.512;13.460;2022-09-09T07:33:56;100623.50;;;29.72;37.98
50550;BME280;36505;52.512;13.460;2022-09-09T07:36:24;100632.59;;;29.85;37.05
50550;BME280;36505;52.512;13.460;2022-09-09T07:38:53;100627.34;;;30.06;37.02
50550;BME280;36505;52.512;13.460;2022-09-09T07:41:21;100618.84;;;30.55;35.71
50550;BME280;36505;52.512;13.460;2022-09-09T07:44:17;100611.78;;;30.72;34.50
50550;BME280;36505;52.512;13.460;2022-09-09T07:46:39;100616.59;;;31.01;35.06
50550;BME280;36505;52.512;13.460;2022-09-09T07:49:09;100608.03;;;30.65;34.75
50550;BME280;36505;52.512;13.460;2022-09-09T07:51:39;100598.06;;;31.04;34.59
50550;BME280;36505;52.512;13.460;2022-09-09T07:54:16;100589.72;;;31.55;33.84
50550;BME280;36505;52.512;13.460;2022-09-09T07:57:09;100631.63;;;31.80;33.15
50550;BME280;36505;52.512;13.460;2022-09-09T07:59:35;100584.34;;;31.84;32.94
50550;BME280;36505;52.512;13.460;2022-09-09T08:02:00;100630.50;;;32.39;32.42
50550;BME280;36505;52.512;13.460;2022-09-09T08:04:26;100641.91;;;31.98;32.84
50550;BME280;36505;52.512;13.460;2022-09-09T08:06:58;100607.81;;;32.39;32.17
50550;BME280;36505;52.512;13.460;2022-09-09T08:09:25;100643.84;;;33.18;31.20
50550;BME280;36505;52.512;13.460;2022-09-09T08:11:52;100643.94;;;33.28;30.93
50550;BME280;36505;52.512;13.460;2022-09-09T08:14:18;100629.47;;;34.04;30.21
50550;BME280;36505;52.512;13.460;2022-09-09T08:16:46;100637.53;;;34.52;29.13
50550;BME280;36505;52.512;13.460;2022-09-09T08:19:12;100650.13;;;34.19;29.48
50550;BME280;36505;52.512;13.460;2022-09-09T08:21:40;100627.03;;;32.70;31.39
50550;BME280;36505;52.512;13.460;2022-09-09T08:24:06;100650.41;;;32.02;32.80
50550;BME280;36505;52.512;13.460;2022-09-09T08:26:35;100650.41;;;30.91;34.63
50550;BME280;36505;52.512;13.460;2022-09-09T08:29:03;100654.31;;;30.30;35.56
50550;BME280;36505;52.512;13.460;2022-09-09T08:31:31;100652.72;;;29.38;36.73
50550;BME280;36505;52.512;13.460;2022-09-09T08:33:58;100646.56;;;28.24;38.52
50550;BME280;36505;52.512;13.460;2022-09-09T08:36:30;100637.38;;;27.36;40.63
50550;BME280;36505;52.512;13.460;2022-09-09T08:38:57;100646.06;;;27.16;41.40
50550;BME280;36505;52.512;13.460;2022-09-09T08:47:48;100662.31;;;25.61;44.83
50550;BME280;36505;52.512;13.460;2022-09-09T08:50:37;100628.13;;;24.80;46.64
50550;BME280;36505;52.512;13.460;2022-09-09T08:53:11;100621.84;;;24.42;47.16
50550;BME280;36505;52.512;13.460;2022-09-09T08:55:48;100657.22;;;24.47;48.11
50550;BME280;36505;52.512;13.460;2022-09-09T08:58:27;100627.63;;;24.08;48.93
50550;BME280;36505;52.512;13.460;2022-09-09T09:11:53;100658.34;;;24.16;50.18
50550;BME280;36505;52.512;13.460;2022-09-09T09:14:22;100668.94;;;25.11;47.70
50550;BME280;36505;52.512;13.460;2022-09-09T09:16:54;100651.16;;;26.46;45.53
50550;BME280;36505;52.512;13.460;2022-09-09T09:19:22;100626.75;;;27.30;42.95
50550;BME280;36505;52.512;13.460;2022-09-09T09:27:20;100657.53;;;28.29;40.47
50550;BME280;36505;52.512;13.460;2022-09-09T09:29:48;100656.09;;;29.08;39.95
50550;BME280;36505;52.512;13.460;2022-09-09T09:32:18;100623.19;;;29.13;37.95
50550;BME280;36505;52.512;13.460;2022-09-09T09:34:51;100631.72;;;29.58;37.98
50550;BME280;36505;52.512;13.460;2022-09-09T09:37:25;100651.47;;;30.53;36.29
50550;BME280;36505;52.512;13.460;2022-09-09T09:39:53;100654.84;;;30.62;35.36
50550;BME280;36505;52.512;13.460;2022-09-09T09:42:18;100645.31;;;30.74;36.31
50550;BME280;36505;52.512;13.460;2022-09-09T09:44:44;100640.47;;;30.74;35.84
50550;BME280;36505;52.512;13.460;2022-09-09T09:47:20;100640.56;;;30.81;36.50
50550;BME280;36505;52.512;13.460;2022-09-09T09:49:58;100651.88;;;30.81;35.44
50550;BME280;36505;52.512;13.460;2022-09-09T09:52:31;100630.22;;;30.36;35.84
50550;BME280;36505;52.512;13.460;2022-09-09T09:55:02;100643.34;;;30.78;35.07
50550;BME280;36505;52.512;13.460;2022-09-09T09:57:30;100650.13;;;30.43;35.50
50550;BME280;36505;52.512;13.460;2022-09-09T10:02:39;100654.16;;;30.72;34.92
50550;BME280;36505;52.512;13.460;2022-09-09T10:05:24;100649.09;;;30.55;35.31
50550;BME280;36505;52.512;13.460;2022-09-09T10:08:10;100644.72;;;30.35;34.88
50550;BME280;36505;52.512;13.460;2022-09-09T10:19:00;100647.75;;;28.58;39.23
50550;BME280;36505;52.512;13.460;2022-09-09T10:21:49;100659.84;;;28.58;39.32
50550;BME280;36505;52.512;13.460;2022-09-09T10:27:15;100650.97;;;28.41;40.49
50550;BME280;36505;52.512;13.460;2022-09-09T10:30:14;100656.31;;;28.46;40.17
50550;BME280;36505;52.512;13.460;2022-09-09T10:32:48;100656.97;;;28.39;39.39
50550;BME280;36505;52.512;13.460;2022-09-09T10:38:08;100659.69;;;27.57;40.55
50550;BME280;36505;52.512;13.460;2022-09-09T10:52:18;100668.66;;;25.82;44.37
50550;BME280;36505;52.512;13.460;2022-09-09T10:57:41;100657.25;;;25.99;43.96
50550;BME280;36505;52.512;13.460;2022-09-09T11:00:19;100658.50;;;25.65;45.25
50550;BME280;36505;52.512;13.460;2022-09-09T11:02:51;100671.00;;;25.47;45.66
50550;BME280;36505;52.512;13.460;2022-09-09T11:07:57;100664.56;;;25.34;46.32
50550;BME280;36505;52.512;13.460;2022-09-09T11:13:25;100659.06;;;25.59;46.08
50550;BME280;36505;52.512;13.460;2022-09-09T11:16:00;100653.22;;;25.64;46.34
50550;BME280;36505;52.512;13.460;2022-09-09T11:18:29;100656.84;;;25.31;46.67
50550;BME280;36505;52.512;13.460;2022-09-09T11:21:00;100661.72;;;24.60;48.75
50550;BME280;36505;52.512;13.460;2022-09-09T11:23:40;100658.13;;;24.30;49.99
50550;BME280;36505;52.512;13.460;2022-09-09T11:26:12;100646.50;;;24.19;49.38
50550;BME280;36505;52.512;13.460;2022-09-09T11:32:00;100658.13;;;23.92;49.36
50550;BME280;36505;52.512;13.460;2022-09-09T11:44:38;100645.31;;;23.27;51.17
50550;BME280;36505;52.512;13.460;2022-09-09T11:47:03;100649.63;;;23.24;51.63
50550;BME280;36505;52.512;13.460;2022-09-09T11:49:40;100628.75;;;23.13;52.13
50550;BME280;36505;52.512;13.460;2022-09-09T11:54:54;100643.72;;;23.09;51.45
50550;BME280;36505;52.512;13.460;2022-09-09T11:57:35;100638.63;;;23.02;51.78
50550;BME280;36505;52.512;13.460;2022-09-09T12:00:01;100628.47;;;22.80;52.23
50550;BME280;36505;52.512;13.460;2022-09-09T12:02:28;100639.81;;;22.84;51.28
50550;BME280;36505;52.512;13.460;2022-09-09T12:05:06;100633.38;;;22.75;52.51
50550;BME280;36505;52.512;13.460;2022-09-09T12:07:34;100632.88;;;22.56;53.35
50550;BME280;36505;52.512;13.460;2022-09-09T12:12:35;100619.38;;;22.40;54.02
50550;BME280;36505;52.512;13.460;2022-09-09T12:17:58;100617.72;;;22.39;54.37
50550;BME280;36505;52.512;13.460;2022-09-09T12:20:31;100602.00;;;22.43;54.71
50550;BME280;36505;52.512;13.460;2022-09-09T12:23:27;100618.91;;;22.56;54.65
50550;BME280;36505;52.512;13.460;2022-09-09T12:32:24;100601.69;;;22.71;53.79
50550;BME280;36505;52.512;13.460;2022-09-09T12:35:03;100605.13;;;22.68;52.30
50550;BME280;36505;52.512;13.460;2022-09-09T12:40:03;100609.72;;;22.55;52.87
50550;BME280;36505;52.512;13.460;2022-09-09T12:42:29;100596.59;;;22.56;52.57
50550;BME280;36505;52.512;13.460;2022-09-09T12:45:00;100597.09;;;22.58;52.47
50550;BME280;36505;52.512;13.460;2022-09-09T12:47:46;100589.53;;;22.50;52.25
50550;BME280;36505;52.512;13.460;2022-09-09T12:50:18;100599.03;;;22.40;52.88
50550;BME280;36505;52.512;13.460;2022-09-09T12:52:47;100591.47;;;22.40;53.14
50550;BME280;36505;52.512;13.460;2022-09-09T12:55:29;100586.06;;;22.35;52.87
50550;BME280;36505;52.512;13.460;2022-09-09T12:57:57;100586.38;;;22.25;52.38
50550;BME280;36505;52.512;13.460;2022-09-09T13:00:25;100594.25;;;22.15;53.14
50550;BME280;36505;52.512;13.460;2022-09-09T13:02:58;100592.78;;;22.17;53.18
50550;BME280;36505;52.512;13.460;2022-09-09T13:05:34;100603.28;;;22.20;53.15
50550;BME280;36505;52.512;13.460;2022-09-09T13:08:05;100608.06;;;22.28;52.97
50550;BME280;36505;52.512;13.460;2022-09-09T13:10:34;100610.34;;;22.35;53.13
50550;BME280;36505;52.512;13.460;2022-09-09T13:13:01;100611.34;;;22.39;51.80
50550;BME280;36505;52.512;13.460;2022-09-09T13:15:28;100614.00;;;22.44;51.23
50550;BME280;36505;52.512;13.460;2022-09-09T13:17:56;100607.91;;;22.42;51.54
50550;BME280;36505;52.512;13.460;2022-09-09T13:20:23;100607.41;;;22.49;51.83
50550;BME280;36505;52.512;13.460;2022-09-09T13:22:50;100600.69;;;22.58;51.83
50550;BME280;36505;52.512;13.460;2022-09-09T13:25:24;100598.22;;;22.57;50.75
50550;BME280;36505;52.512;13.460;2022-09-09T13:27:58;100587.88;;;22.57;49.82
50550;BME280;36505;52.512;13.460;2022-09-09T13:30:35;100590.34;;;22.59;49.76
50550;BME280;36505;52.512;13.460;2022-09-09T13:35:35;100584.59;;;22.64;49.97
50550;BME280;36505;52.512;13.460;2022-09-09T13:38:08;100573.41;;;22.72;50.42
50550;BME280;36505;52.512;13.460;2022-09-09T13:40:34;100581.00;;;22.80;50.34
50550;BME280;36505;52.512;13.460;2022-09-09T13:43:00;100571.66;;;22.85;50.01
50550;BME280;36505;52.512;13.460;2022-09-09T13:45:27;100583.13;;;22.92;49.78
50550;BME280;36505;52.512;13.460;2022-09-09T13:47:54;100574.75;;;22.92;49.23
50550;BME280;36505;52.512;13.460;2022-09-09T13:50:30;100572.28;;;22.91;49.12
50550;BME280;36505;52.512;13.460;2022-09-09T13:52:59;100568.50;;;22.95;49.27
50550;BME280;36505;52.512;13.460;2022-09-09T13:55:28;100572.75;;;23.01;48.83
50550;BME280;36505;52.512;13.460;2022-09-09T13:57:56;100578.34;;;23.01;49.20
50550;BME280;36505;52.512;13.460;2022-09-09T14:00:22;100573.44;;;22.98;49.30
50550;BME280;36505;52.512;13.460;2022-09-09T14:02:52;100572.44;;;22.94;49.71
50550;BME280;36505;52.512;13.460;2022-09-09T14:05:20;100580.81;;;22.94;50.03
50550;BME280;36505;52.512;13.460;2022-09-09T14:07:47;100581.97;;;22.93;49.89
50550;BME280;36505;52.512;13.460;2022-09-09T14:10:13;100591.66;;;22.87;50.00
50550;BME280;36505;52.512;13.460;2022-09-09T14:12:39;100588.09;;;22.78;49.89
50550;BME280;36505;52.512;13.460;2022-09-09T14:15:06;100580.66;;;22.65;50.35
50550;BME280;36505;52.512;13.460;2022-09-09T14:17:32;100585.25;;;22.61;50.66
50550;BME280;36505;52.512;13.460;2022-09-09T14:19:58;100579.53;;;22.57;50.91
50550;BME280;36505;52.512;13.460;2022-09-09T14:22:24;100579.66;;;22.61;50.90
50550;BME280;36505;52.512;13.460;2022-09-09T14:24:49;100585.25;;;22.61;50.89
50550;BME280;36505;52.512;13.460;2022-09-09T14:27:16;100578.03;;;22.60;51.70
50550;BME280;36505;52.512;13.460;2022-09-09T14:29:41;100579.16;;;22.67;51.88
50550;BME280;36505;52.512;13.460;2022-09-09T14:32:08;100590.03;;;22.77;51.90
50550;BME280;36505;52.512;13.460;2022-09-09T14:34:33;100583.13;;;22.83;52.36
50550;BME280;36505;52.512;13.460;2022-09-09T14:37:00;100571.16;;;22.83;51.96
50550;BME280;36505;52.512;13.460;2022-09-09T14:39:25;100572.47;;;22.86;52.48
50550;BME280;36505;52.512;13.460;2022-09-09T14:41:51;100565.56;;;22.83;52.07
50550;BME280;36505;52.512;13.460;2022-09-09T14:44:16;100560.16;;;22.78;51.53
50550;BME280;36505;52.512;13.460;2022-09-09T14:46:42;100566.22;;;22.71;51.68
50550;BME280;36505;52.512;13.460;2022-09-09T14:49:10;100568.50;;;22.69;51.68
50550;BME280;36505;52.512;13.460;2022-09-09T14:51:35;100575.91;;;22.65;52.18
50550;BME280;36505;52.512;13.460;2022-09-09T14:54:01;100572.13;;;22.61;52.54
50550;BME280;36505;52.512;13.460;2022-09-09T14:56:29;100578.03;;;22.60;52.74
50550;BME280;36505;52.512;13.460;2022-09-09T14:58:57;100574.41;;;22.59;52.59
50550;BME280;36505;52.512;13.460;2022-09-09T15:01:24;100565.88;;;22.56;52.61
50550;BME280;36505;52.512;13.460;2022-09-09T15:03:58;100574.09;;;22.61;52.84
50550;BME280;36505;52.512;13.460;2022-09-09T15:06:24;100581.97;;;22.59;52.56
50550;BME280;36505;52.512;13.460;2022-09-09T15:08:51;100580.66;;;22.56;52.76
50550;BME280;36505;52.512;13.460;2022-09-09T15:11:18;100586.25;;;22.56;53.10
50550;BME280;36505;52.512;13.460;2022-09-09T15:13:44;100582.63;;;22.56;52.77
50550;BME280;36505;52.512;13.460;2022-09-09T15:16:16;100577.88;;;22.56;52.50
50550;BME280;36505;52.512;13.460;2022-09-09T15:18:43;100575.25;;;22.51;52.08
50550;BME280;36505;52.512;13.460;2022-09-09T15:21:15;100572.47;;;22.51;51.98